Time;durP1;ratioP1;P1;durP2;ratioP2;P2;SDS_P1;SDS_P2;PMS_P1;PMS_P2;Temp;Humidity;BMP_temperature;BMP_pressure;BME280_temperature;BME280_humidity;BME280_pressure;Samples;Min_cycle;Max_cycle;Signal;HPM_P1;HPM_P2
2021/11/22 00:01:11;;;;;;;8.85;1.63;;;20.90;44.70;;;;;;4996898;28;20053;-61
2021/11/22 00:03:38;;;;;;;8.18;1.85;;;20.90;44.80;;;;;;5000900;28;20750;-61
2021/11/22 00:06:04;;;;;;;6.95;1.67;;;20.90;44.70;;;;;;4997181;28;20046;-60
2021/11/22 00:08:29;;;;;;;7.50;1.70;;;20.90;44.70;;;;;;4996670;28;20042;-61
2021/11/22 00:10:56;;;;;;;7.72;1.85;;;20.90;44.70;;;;;;4998968;28;20034;-61
2021/11/22 00:13:21;;;;;;;7.60;1.95;;;21.00;44.80;;;;;;4997202;28;20500;-62
2021/11/22 00:15:47;;;;;;;8.05;1.60;;;20.90;44.70;;;;;;5000248;28;20070;-61
2021/11/22 00:18:13;;;;;;;6.63;1.80;;;20.90;44.60;;;;;;4997262;28;20072;-61
2021/11/22 00:20:39;;;;;;;7.88;2.00;;;20.90;44.60;;;;;;4998948;28;20100;-60
2021/11/22 00:23:05;;;;;;;6.40;1.80;;;20.90;44.60;;;;;;4997994;28;20050;-61
2021/11/22 00:25:31;;;;;;;7.85;1.70;;;20.90;44.60;;;;;;4995043;28;20041;-61
2021/11/22 00:27:57;;;;;;;8.93;2.33;;;20.90;44.70;;;;;;4996719;28;20042;-61
2021/11/22 00:30:40;;;;;;;7.47;1.90;;;20.90;44.60;;;;;;5012274;28;20042;-61
2021/11/22 00:33:10;;;;;;;7.53;2.08;;;20.90;44.50;;;;;;5013425;28;20042;-62
2021/11/22 00:35:39;;;;;;;8.60;2.13;;;21.00;44.80;;;;;;4997269;28;20050;-62
2021/11/22 00:38:07;;;;;;;7.32;2.20;;;20.90;44.60;;;;;;4997784;28;20069;-61
2021/11/22 00:40:36;;;;;;;7.97;1.98;;;20.90;44.50;;;;;;4998725;28;20510;-62
2021/11/22 00:43:02;;;;;;;7.13;1.90;;;20.90;44.50;;;;;;4997018;28;20073;-61
2021/11/22 00:45:28;;;;;;;8.07;2.25;;;20.90;44.50;;;;;;4997205;28;20068;-62
2021/11/22 00:47:55;;;;;;;6.85;2.00;;;20.90;44.50;;;;;;4995822;28;20054;-61
2021/11/22 00:50:21;;;;;;;7.68;2.05;;;21.00;44.60;;;;;;4994739;28;20048;-61
2021/11/22 00:52:48;;;;;;;9.52;2.35;;;20.90;44.50;;;;;;4998953;28;20041;-61
2021/11/22 00:55:14;;;;;;;6.85;2.17;;;21.00;44.50;;;;;;4996774;28;20037;-63
2021/11/22 00:57:41;;;;;;;6.57;2.13;;;20.90;44.30;;;;;;4996781;28;20046;-61
2021/11/22 01:00:10;;;;;;;7.40;2.00;;;21.00;44.50;;;;;;4998241;28;20103;-61
2021/11/22 01:02:36;;;;;;;6.63;2.10;;;20.90;44.20;;;;;;4995579;28;20046;-63
2021/11/22 01:05:06;;;;;;;6.53;2.17;;;20.90;44.20;;;;;;4997668;28;20049;-62
2021/11/22 01:07:32;;;;;;;6.78;2.00;;;21.00;44.40;;;;;;4998782;28;20453;-62
2021/11/22 01:09:58;;;;;;;8.05;1.80;;;20.90;44.20;;;;;;4995886;28;20045;-63
2021/11/22 01:12:28;;;;;;;7.45;2.10;;;21.00;44.40;;;;;;4996513;28;20077;-63
2021/11/22 01:14:56;;;;;;;10.23;2.17;;;20.90;44.10;;;;;;4998710;28;20046;-62
2021/11/22 01:17:22;;;;;;;7.85;2.30;;;20.90;44.20;;;;;;4995408;28;20046;-63
2021/11/22 01:19:51;;;;;;;7.13;1.90;;;21.00;44.50;;;;;;4997333;28;20499;-62
2021/11/22 01:22:19;;;;;;;7.20;2.05;;;21.00;44.40;;;;;;4996140;28;20192;-62
2021/11/22 01:24:45;;;;;;;8.15;1.98;;;20.90;44.20;;;;;;4995249;28;20046;-63
2021/11/22 01:27:10;;;;;;;10.65;2.20;;;20.90;44.30;;;;;;4996178;28;20057;-63
2021/11/22 01:29:36;;;;;;;8.10;2.17;;;20.90;44.20;;;;;;4994766;28;20042;-62
2021/11/22 01:32:02;;;;;;;7.88;1.88;;;21.00;44.30;;;;;;4998674;28;20136;-62
2021/11/22 01:34:28;;;;;;;6.28;1.92;;;21.00;44.30;;;;;;4997189;28;20403;-61
2021/11/22 01:36:55;;;;;;;7.75;2.05;;;21.00;44.20;;;;;;4996189;28;20079;-61
2021/11/22 01:39:20;;;;;;;6.78;1.85;;;21.00;44.30;;;;;;4995032;28;20145;-62
2021/11/22 01:41:46;;;;;;;7.07;2.05;;;21.00;44.20;;;;;;4994273;28;20500;-61
2021/11/22 01:44:12;;;;;;;7.43;2.10;;;21.00;44.30;;;;;;4994994;28;20515;-61
2021/11/22 01:46:38;;;;;;;9.10;2.42;;;21.00;44.20;;;;;;4994012;28;20096;-60
2021/11/22 01:49:03;;;;;;;6.38;1.98;;;21.00;44.10;;;;;;4995345;28;20141;-60
2021/11/22 01:51:30;;;;;;;8.20;2.03;;;21.00;44.20;;;;;;4996800;28;20057;-60
2021/11/22 01:53:57;;;;;;;8.18;2.00;;;21.00;44.10;;;;;;4996900;28;20041;-61
2021/11/22 01:56:24;;;;;;;7.22;2.00;;;21.00;44.20;;;;;;4996954;28;20042;-61
2021/11/22 01:58:50;;;;;;;6.78;2.08;;;21.00;44.20;;;;;;4995070;28;20069;-61
2021/11/22 02:01:16;;;;;;;7.28;2.00;;;21.00;44.10;;;;;;4994859;28;20144;-61
2021/11/22 02:03:42;;;;;;;7.55;2.17;;;21.00;44.10;;;;;;4997062;28;20041;-62
2021/11/22 02:06:08;;;;;;;7.60;2.17;;;21.00;44.10;;;;;;4996924;28;20886;-61
2021/11/22 02:08:35;;;;;;;10.30;2.28;;;21.00;44.10;;;;;;4997230;28;20042;-61
2021/11/22 02:11:02;;;;;;;6.35;1.83;;;21.00;44.10;;;;;;4995881;28;20104;-61
2021/11/22 02:13:28;;;;;;;11.02;1.98;;;21.00;44.10;;;;;;4994658;28;20049;-61
2021/11/22 02:15:54;;;;;;;5.85;1.88;;;21.00;44.10;;;;;;4993165;28;20993;-61
2021/11/22 02:18:19;;;;;;;7.28;2.13;;;21.00;44.10;;;;;;4998856;28;20101;-61
2021/11/22 02:20:46;;;;;;;8.32;2.15;;;21.00;44.10;;;;;;4996182;28;20065;-61
2021/11/22 02:23:12;;;;;;;7.97;2.05;;;21.00;44.10;;;;;;4997935;28;20038;-61
2021/11/22 02:25:42;;;;;;;6.10;1.92;;;21.00;44.10;;;;;;4995723;28;20446;-60
2021/11/22 02:28:09;;;;;;;7.95;2.25;;;21.00;44.10;;;;;;4993969;28;20049;-60
2021/11/22 02:30:40;;;;;;;6.90;1.90;;;21.00;44.10;;;;;;4994715;28;20045;-62
2021/11/22 02:33:27;;;;;;;5.63;1.92;;;21.00;44.10;;;;;;4996098;28;20051;-60
2021/11/22 02:35:58;;;;;;;7.72;1.70;;;21.00;43.90;;;;;;4997010;28;20046;-61
2021/11/22 02:38:35;;;;;;;7.30;1.90;;;21.00;44.00;;;;;;4993574;28;20064;-61
2021/11/22 02:41:02;;;;;;;6.97;1.85;;;21.00;43.90;;;;;;4996659;28;20054;-62
2021/11/22 02:43:30;;;;;;;8.98;1.90;;;21.00;43.90;;;;;;4996355;28;20038;-60
2021/11/22 02:45:56;;;;;;;6.85;2.08;;;21.00;44.10;;;;;;4995428;28;20282;-62
2021/11/22 02:48:22;;;;;;;7.20;2.00;;;21.00;44.20;;;;;;4993891;28;20060;-63
2021/11/22 02:50:48;;;;;;;6.80;2.22;;;21.00;43.90;;;;;;4993820;28;20058;-63
2021/11/22 02:53:14;;;;;;;7.18;2.05;;;21.00;43.90;;;;;;4994476;28;20117;-62
2021/11/22 02:55:40;;;;;;;5.22;1.63;;;21.00;44.00;;;;;;4992979;28;20148;-62
2021/11/22 02:58:06;;;;;;;5.28;1.77;;;21.00;43.70;;;;;;4995645;28;20093;-62
2021/11/22 03:00:34;;;;;;;6.30;1.70;;;21.00;43.80;;;;;;4992719;28;20860;-62
2021/11/22 03:03:00;;;;;;;8.50;1.90;;;21.00;43.90;;;;;;4994941;28;20093;-61
2021/11/22 03:05:25;;;;;;;7.80;1.92;;;21.00;43.70;;;;;;4994728;28;20524;-61
2021/11/22 03:07:53;;;;;;;6.13;1.55;;;21.00;43.70;;;;;;4993552;28;20049;-61
2021/11/22 03:10:22;;;;;;;7.00;1.70;;;21.00;43.80;;;;;;4996237;28;20188;-61
2021/11/22 03:12:49;;;;;;;4.88;1.75;;;21.00;43.80;;;;;;4992899;28;20507;-62
2021/11/22 03:15:17;;;;;;;5.75;1.75;;;21.00;43.80;;;;;;4994512;28;20034;-61
2021/11/22 03:17:43;;;;;;;7.35;2.20;;;21.00;43.80;;;;;;4993560;28;20439;-61
2021/11/22 03:20:11;;;;;;;5.80;1.90;;;21.00;43.60;;;;;;4995080;28;20046;-61
2021/11/22 03:22:36;;;;;;;8.63;1.90;;;21.00;43.70;;;;;;4994301;28;20592;-60
2021/11/22 03:25:04;;;;;;;6.30;1.80;;;21.00;43.70;;;;;;4994720;28;20057;-61
2021/11/22 03:27:30;;;;;;;5.93;1.88;;;21.00;43.60;;;;;;4994485;28;20092;-60
2021/11/22 03:29:55;;;;;;;5.38;2.10;;;21.00;43.60;;;;;;4994217;28;20392;-61
2021/11/22 03:32:22;;;;;;;4.88;1.80;;;21.00;43.40;;;;;;4994400;28;20065;-62
2021/11/22 03:34:47;;;;;;;6.75;1.92;;;21.00;43.50;;;;;;4995212;28;20627;-61
2021/11/22 03:37:14;;;;;;;5.15;1.80;;;21.10;43.80;;;;;;4996287;28;20038;-61
2021/11/22 03:39:45;;;;;;;5.85;1.80;;;21.00;43.40;;;;;;4993805;28;20046;-61
2021/11/22 03:42:15;;;;;;;7.75;1.80;;;21.10;43.70;;;;;;4994731;28;20068;-61
2021/11/22 03:44:40;;;;;;;5.97;2.03;;;21.10;43.70;;;;;;4996943;28;20046;-60
2021/11/22 03:47:06;;;;;;;5.22;1.70;;;21.10;43.60;;;;;;4993963;28;20379;-60
2021/11/22 03:49:33;;;;;;;6.15;1.67;;;21.10;43.40;;;;;;4995183;28;20100;-61
2021/11/22 03:52:03;;;;;;;6.00;2.10;;;21.00;43.20;;;;;;4994246;28;20141;-61
2021/11/22 03:54:29;;;;;;;5.35;1.70;;;21.00;43.30;;;;;;4993129;28;20137;-60
2021/11/22 03:56:55;;;;;;;5.65;2.00;;;21.00;42.90;;;;;;4995340;28;20380;-60
2021/11/22 03:59:21;;;;;;;5.97;1.73;;;21.00;43.10;;;;;;4993141;28;20066;-61
2021/11/22 04:01:47;;;;;;;6.55;2.10;;;21.00;43.20;;;;;;4994012;28;20094;-61
2021/11/22 04:04:12;;;;;;;5.68;1.77;;;21.00;43.00;;;;;;4996121;28;20053;-61
2021/11/22 04:06:38;;;;;;;7.82;2.08;;;21.00;43.10;;;;;;4993985;28;20030;-62
2021/11/22 04:09:05;;;;;;;6.72;2.17;;;21.00;43.00;;;;;;4993428;28;20045;-61
2021/11/22 04:11:32;;;;;;;5.28;1.92;;;21.00;42.80;;;;;;4992961;28;20636;-59
2021/11/22 04:13:58;;;;;;;5.22;1.95;;;21.00;43.10;;;;;;4993265;28;20046;-61
2021/11/22 04:16:24;;;;;;;5.35;2.00;;;21.00;43.00;;;;;;4992523;28;20409;-61
2021/11/22 04:18:50;;;;;;;4.90;1.65;;;21.00;43.00;;;;;;4993346;28;20089;-60
2021/11/22 04:21:20;;;;;;;5.75;1.73;;;21.00;43.20;;;;;;4993299;28;20045;-61
2021/11/22 04:23:46;;;;;;;8.25;1.77;;;21.00;42.90;;;;;;4993669;28;20105;-61
2021/11/22 04:26:12;;;;;;;5.43;1.83;;;21.00;43.10;;;;;;4996398;28;20128;-61
2021/11/22 04:28:39;;;;;;;5.97;1.80;;;21.00;43.00;;;;;;4993989;28;20042;-62
2021/11/22 04:31:05;;;;;;;4.68;1.50;;;21.00;42.90;;;;;;4994821;28;20125;-61
2021/11/22 04:33:31;;;;;;;4.65;1.60;;;21.00;43.00;;;;;;4992896;28;20042;-61
2021/11/22 04:35:57;;;;;;;4.65;1.70;;;21.00;42.70;;;;;;4992598;28;20034;-61
2021/11/22 04:38:23;;;;;;;4.55;1.42;;;21.00;42.80;;;;;;4993798;28;20042;-61
2021/11/22 04:40:48;;;;;;;5.03;1.40;;;21.00;42.50;;;;;;4993576;28;20053;-61
2021/11/22 04:43:15;;;;;;;4.30;1.40;;;21.00;42.80;;;;;;4996697;28;20074;-61
2021/11/22 04:45:41;;;;;;;4.70;1.40;;;21.00;42.90;;;;;;4998022;28;20046;-61
2021/11/22 04:48:07;;;;;;;5.10;1.48;;;21.00;42.50;;;;;;4996684;28;20045;-61
2021/11/22 04:50:34;;;;;;;4.70;1.40;;;21.00;42.60;;;;;;4998024;28;20056;-62
2021/11/22 04:53:01;;;;;;;5.55;1.45;;;21.00;42.50;;;;;;4996947;28;20038;-61
2021/11/22 04:55:28;;;;;;;4.57;1.10;;;21.00;43.00;;;;;;4997149;28;20495;-61
2021/11/22 04:57:54;;;;;;;5.03;1.50;;;21.00;43.50;;;;;;4997069;28;20050;-61
2021/11/22 05:00:22;;;;;;;6.88;1.50;;;21.00;43.30;;;;;;4996801;28;20042;-61
2021/11/22 05:02:50;;;;;;;5.85;1.48;;;21.00;43.70;;;;;;4999129;28;20038;-60
2021/11/22 05:05:17;;;;;;;6.25;1.58;;;21.00;43.30;;;;;;5010961;28;20092;-61
2021/11/22 05:07:43;;;;;;;5.65;1.40;;;21.00;43.10;;;;;;4998748;28;20128;-61
2021/11/22 05:10:10;;;;;;;3.63;1.10;;;21.00;42.80;;;;;;4996561;28;20829;-61
2021/11/22 05:12:36;;;;;;;5.03;1.30;;;21.00;42.70;;;;;;4997434;28;20073;-62
2021/11/22 05:15:04;;;;;;;5.30;1.35;;;21.00;42.80;;;;;;4995546;28;20043;-61
2021/11/22 05:17:30;;;;;;;4.78;1.23;;;21.00;43.00;;;;;;4997843;28;20092;-61
2021/11/22 05:19:56;;;;;;;5.20;1.00;;;21.00;42.80;;;;;;4997132;28;20050;-62
2021/11/22 05:22:24;;;;;;;3.95;0.98;;;21.00;42.70;;;;;;4993517;28;20049;-61
2021/11/22 05:24:50;;;;;;;3.88;1.15;;;21.10;42.90;;;;;;4997032;28;20097;-60
2021/11/22 05:27:21;;;;;;;3.53;1.17;;;21.00;42.50;;;;;;4997518;28;20034;-62
2021/11/22 05:29:49;;;;;;;3.60;1.00;;;21.10;42.90;;;;;;4994777;28;20199;-62
2021/11/22 05:32:17;;;;;;;2.50;0.80;;;21.10;42.80;;;;;;4994766;28;20138;-61
2021/11/22 05:34:48;;;;;;;3.63;1.00;;;21.10;42.80;;;;;;4993940;28;20081;-60
2021/11/22 05:37:15;;;;;;;3.75;1.10;;;21.10;42.80;;;;;;4993268;28;20041;-61
2021/11/22 05:39:41;;;;;;;3.55;0.95;;;21.10;42.70;;;;;;4995960;28;20077;-61
2021/11/22 05:42:07;;;;;;;2.80;0.90;;;21.10;42.80;;;;;;4996026;28;20030;-61
2021/11/22 05:44:34;;;;;;;3.30;0.90;;;21.10;42.70;;;;;;4998310;28;20064;-61
2021/11/22 05:47:01;;;;;;;5.00;0.90;;;21.10;42.50;;;;;;4995225;28;20452;-61
2021/11/22 05:49:30;;;;;;;4.57;1.10;;;21.10;42.50;;;;;;4997767;28;20045;-61
2021/11/22 05:51:57;;;;;;;2.88;0.90;;;21.10;42.50;;;;;;4997086;28;20041;-62
2021/11/22 05:54:24;;;;;;;2.90;0.75;;;21.10;42.50;;;;;;4994953;28;20134;-63
2021/11/22 05:56:50;;;;;;;3.17;1.00;;;21.10;42.70;;;;;;4994274;28;20062;-61
2021/11/22 05:59:16;;;;;;;3.25;0.85;;;21.10;42.50;;;;;;4996408;28;20056;-63
2021/11/22 06:01:42;;;;;;;2.47;0.80;;;21.10;42.50;;;;;;4996264;28;20080;-63
2021/11/22 06:04:08;;;;;;;3.50;0.80;;;21.10;42.60;;;;;;4995936;28;20125;-61
2021/11/22 06:06:33;;;;;;;2.58;0.80;;;21.10;42.40;;;;;;4994972;28;20046;-62
2021/11/22 06:08:59;;;;;;;3.25;0.75;;;21.10;42.50;;;;;;4995511;28;20114;-63
2021/11/22 06:11:26;;;;;;;3.65;0.93;;;21.10;42.30;;;;;;4994602;28;20523;-61
2021/11/22 06:13:51;;;;;;;3.97;1.10;;;21.10;42.90;;;;;;4994171;28;20049;-62
2021/11/22 06:16:17;;;;;;;6.60;0.90;;;21.10;42.90;;;;;;4995221;28;20042;-61
2021/11/22 06:18:43;;;;;;;8.02;1.20;;;21.10;42.80;;;;;;4996002;28;20427;-61
2021/11/22 06:21:08;;;;;;;4.55;1.10;;;21.10;42.50;;;;;;4996608;28;20128;-61
2021/11/22 06:23:34;;;;;;;2.92;0.88;;;21.00;42.30;;;;;;4995843;28;20034;-61
2021/11/22 06:26:00;;;;;;;9.82;2.40;;;21.10;42.50;;;;;;4993648;28;20588;-62
2021/11/22 06:28:25;;;;;;;13.77;2.22;;;21.00;42.60;;;;;;4994024;28;20061;-61
2021/11/22 06:30:51;;;;;;;5.28;2.15;;;20.90;41.40;;;;;;4995767;28;20045;-61
2021/11/22 06:33:17;;;;;;;5.93;2.00;;;20.70;39.00;;;;;;4994859;28;20081;-61
2021/11/22 06:35:43;;;;;;;7.35;1.88;;;20.50;38.80;;;;;;4994372;28;20037;-62
2021/11/22 06:38:09;;;;;;;5.93;1.60;;;20.60;40.00;;;;;;4996382;28;20054;-62
2021/11/22 06:40:35;;;;;;;6.65;1.40;;;20.50;40.10;;;;;;4995351;28;20054;-58
2021/11/22 06:43:01;;;;;;;6.63;1.10;;;20.60;40.60;;;;;;4993953;28;20050;-62
2021/11/22 06:45:28;;;;;;;4.00;1.00;;;20.60;40.70;;;;;;4996277;28;20491;-61
2021/11/22 06:47:54;;;;;;;7.35;1.20;;;20.70;40.80;;;;;;4993204;28;20053;-61
2021/11/22 06:50:20;;;;;;;2.85;0.95;;;20.70;40.90;;;;;;4992139;28;20484;-62
2021/11/22 06:52:46;;;;;;;4.22;0.80;;;20.70;40.80;;;;;;4994665;28;20042;-62
2021/11/22 06:55:13;;;;;;;3.42;1.00;;;20.80;41.20;;;;;;4993472;28;20542;-61
2021/11/22 06:57:39;;;;;;;4.35;0.90;;;20.80;41.20;;;;;;4994749;28;20061;-60
2021/11/22 07:00:07;;;;;;;4.50;1.00;;;20.80;41.40;;;;;;4995804;28;20462;-58
2021/11/22 07:02:33;;;;;;;2.72;0.80;;;20.80;41.40;;;;;;4995438;28;20046;-61
2021/11/22 07:04:59;;;;;;;2.30;0.70;;;20.80;41.50;;;;;;4994060;28;20037;-61
2021/11/22 07:07:25;;;;;;;3.47;0.80;;;20.90;41.70;;;;;;4995359;28;20052;-62
2021/11/22 07:09:52;;;;;;;2.92;0.70;;;20.90;42.00;;;;;;4994589;28;20129;-60
2021/11/22 07:12:18;;;;;;;2.97;0.70;;;20.90;42.00;;;;;;4993975;28;20129;-62
2021/11/22 07:14:44;;;;;;;3.88;0.70;;;20.90;42.20;;;;;;4994823;28;20129;-60
2021/11/22 07:17:11;;;;;;;3.88;0.80;;;21.00;42.40;;;;;;5002731;28;20038;-60
2021/11/22 07:19:37;;;;;;;2.35;0.60;;;21.00;42.50;;;;;;4992764;28;20093;-62
2021/11/22 07:22:07;;;;;;;2.85;0.73;;;21.00;42.50;;;;;;4995258;28;20053;-61
2021/11/22 07:24:34;;;;;;;2.22;0.70;;;21.00;42.40;;;;;;4993991;28;20117;-61
2021/11/22 07:27:00;;;;;;;2.83;0.80;;;21.00;42.50;;;;;;4993445;28;20567;-61
2021/11/22 07:29:26;;;;;;;2.08;0.60;;;21.10;42.60;;;;;;4994168;28;20042;-61
2021/11/22 07:31:52;;;;;;;2.20;0.60;;;21.10;42.50;;;;;;4991903;28;20046;-61
2021/11/22 07:34:18;;;;;;;2.83;0.70;;;21.10;42.60;;;;;;4993562;28;20088;-62
2021/11/22 07:36:44;;;;;;;2.60;0.70;;;21.10;42.60;;;;;;4993546;28;20059;-60
2021/11/22 07:39:09;;;;;;;2.13;0.70;;;21.10;42.60;;;;;;4992866;28;20034;-62
2021/11/22 07:41:35;;;;;;;3.38;0.93;;;21.10;42.50;;;;;;4993471;28;20589;-61
2021/11/22 07:44:01;;;;;;;1.90;0.60;;;21.10;42.50;;;;;;4992003;28;20042;-62
2021/11/22 07:46:27;;;;;;;2.55;0.70;;;21.10;42.50;;;;;;4992995;28;20585;-62
2021/11/22 07:48:53;;;;;;;4.95;0.65;;;21.10;42.50;;;;;;4996308;28;20042;-60
2021/11/22 07:51:19;;;;;;;2.05;0.55;;;21.10;43.10;;;;;;4995465;28;20034;-62
2021/11/22 07:53:45;;;;;;;2.83;0.68;;;21.10;42.20;;;;;;4995347;28;20046;-62
2021/11/22 07:56:12;;;;;;;2.10;0.60;;;21.10;41.90;;;;;;4995943;28;20033;-62
2021/11/22 07:58:38;;;;;;;5.43;0.70;;;21.10;41.70;;;;;;4994693;28;20042;-62
2021/11/22 08:01:04;;;;;;;2.88;0.70;;;21.10;41.70;;;;;;4995099;28;20053;-62
2021/11/22 08:03:29;;;;;;;2.60;0.77;;;21.10;41.50;;;;;;4996552;28;20037;-61
2021/11/22 08:05:57;;;;;;;3.28;0.90;;;21.10;41.60;;;;;;4992091;28;20046;-61
2021/11/22 08:08:25;;;;;;;2.60;0.80;;;21.10;41.60;;;;;;4993683;28;20414;-62
2021/11/22 08:11:05;;;;;;;3.35;0.80;;;21.10;41.70;;;;;;4993909;28;20664;-62
2021/11/22 08:13:31;;;;;;;4.07;0.85;;;21.10;41.60;;;;;;4991830;28;20512;-62
2021/11/22 08:15:59;;;;;;;2.58;0.80;;;21.10;41.60;;;;;;4995044;28;20088;-62
2021/11/22 08:18:25;;;;;;;2.55;0.77;;;21.10;41.60;;;;;;4997242;28;20053;-62
2021/11/22 08:20:51;;;;;;;2.40;0.70;;;21.10;41.60;;;;;;4998384;28;20049;-62
2021/11/22 08:23:17;;;;;;;2.58;0.70;;;21.10;41.50;;;;;;4999443;28;20038;-62
2021/11/22 08:25:43;;;;;;;2.90;0.80;;;21.10;41.60;;;;;;4998881;28;20050;-62
2021/11/22 08:28:09;;;;;;;2.65;0.60;;;21.10;41.40;;;;;;4996708;28;20042;-62
2021/11/22 08:30:36;;;;;;;2.05;0.77;;;21.00;41.40;;;;;;4996904;28;20395;-62
2021/11/22 08:33:02;;;;;;;3.40;0.88;;;21.00;41.30;;;;;;5000408;28;20046;-61
2021/11/22 08:35:31;;;;;;;3.90;0.70;;;21.00;41.20;;;;;;4997293;28;20038;-62
2021/11/22 08:37:59;;;;;;;2.95;0.80;;;21.00;41.40;;;;;;4997089;28;20070;-61
2021/11/22 08:40:25;;;;;;;2.15;0.60;;;21.00;41.30;;;;;;4996142;28;20041;-61
2021/11/22 08:42:54;;;;;;;3.28;0.70;;;21.00;41.30;;;;;;4998168;28;20042;-61
2021/11/22 08:45:21;;;;;;;3.22;0.70;;;21.00;41.20;;;;;;4996634;28;20042;-62
2021/11/22 08:47:48;;;;;;;2.38;0.70;;;21.00;41.20;;;;;;4997395;28;20125;-61
2021/11/22 08:50:15;;;;;;;2.88;0.80;;;21.00;41.20;;;;;;4996781;28;20030;-61
2021/11/22 08:52:42;;;;;;;1.52;0.60;;;21.00;42.00;;;;;;4996165;28;20038;-62
2021/11/22 08:55:09;;;;;;;1.77;0.60;;;21.00;41.40;;;;;;4995670;28;20041;-61
2021/11/22 08:57:35;;;;;;;2.63;0.73;;;21.00;41.30;;;;;;4995528;28;20508;-62
2021/11/22 09:00:13;;;;;;;2.75;0.70;;;21.00;41.30;;;;;;4994880;28;20573;-62
2021/11/22 09:02:38;;;;;;;2.17;0.70;;;21.00;41.50;;;;;;4999717;28;20048;-61
2021/11/22 09:05:05;;;;;;;2.15;0.60;;;21.00;41.40;;;;;;4997028;28;20042;-61
2021/11/22 09:07:30;;;;;;;1.55;0.60;;;21.00;41.40;;;;;;4994723;28;20090;-61
2021/11/22 09:09:56;;;;;;;1.75;0.68;;;21.00;41.40;;;;;;4997562;28;20046;-61
2021/11/22 09:12:22;;;;;;;2.33;0.75;;;21.00;41.40;;;;;;4996509;28;20395;-61
2021/11/22 09:14:49;;;;;;;1.58;0.60;;;21.00;41.60;;;;;;4997270;28;20065;-61
2021/11/22 09:17:17;;;;;;;1.98;0.50;;;21.10;41.80;;;;;;4996211;28;20046;-62
2021/11/22 09:19:43;;;;;;;2.90;0.70;;;21.10;41.80;;;;;;4998887;28;20679;-61
2021/11/22 09:22:10;;;;;;;2.17;0.65;;;21.10;41.40;;;;;;4994296;28;20089;-61
2021/11/22 09:24:37;;;;;;;3.63;0.70;;;21.10;41.70;;;;;;4996326;28;20043;-62
2021/11/22 09:27:03;;;;;;;0.98;0.43;;;21.10;41.90;;;;;;4995413;28;20069;-61
2021/11/22 09:29:29;;;;;;;2.38;0.50;;;21.10;41.90;;;;;;4996162;28;20096;-61
2021/11/22 09:31:55;;;;;;;1.25;0.50;;;21.10;41.70;;;;;;4997383;28;20050;-60
2021/11/22 09:34:20;;;;;;;3.05;0.70;;;21.10;41.60;;;;;;4997693;28;20136;-62
2021/11/22 09:36:47;;;;;;;2.55;0.70;;;21.10;41.90;;;;;;4996222;28;20042;-61
2021/11/22 09:39:18;;;;;;;1.88;0.60;;;21.10;41.90;;;;;;4996784;28;20069;-62
2021/11/22 09:41:48;;;;;;;1.30;0.50;;;21.10;41.80;;;;;;4995476;28;20037;-61
2021/11/22 09:44:16;;;;;;;1.92;0.50;;;21.10;41.80;;;;;;4998243;28;20037;-62
2021/11/22 09:46:42;;;;;;;2.05;0.70;;;21.10;41.80;;;;;;4996112;28;20069;-63
2021/11/22 09:49:08;;;;;;;2.00;0.63;;;21.10;41.80;;;;;;4995849;28;20042;-61
2021/11/22 09:51:34;;;;;;;1.98;0.60;;;21.20;42.00;;;;;;4996952;28;20046;-61
2021/11/22 09:54:03;;;;;;;1.38;0.50;;;21.10;41.50;;;;;;4995392;28;20046;-61
2021/11/22 09:56:34;;;;;;;1.63;0.50;;;21.20;41.60;;;;;;4996595;28;20411;-61
2021/11/22 09:59:01;;;;;;;1.52;0.50;;;21.20;41.60;;;;;;4998185;28;20041;-61
2021/11/22 10:01:31;;;;;;;2.03;0.60;;;21.10;41.10;;;;;;4997842;28;20046;-61
2021/11/22 10:04:10;;;;;;;1.73;0.60;;;21.20;41.10;;;;;;4998602;28;20038;-61
2021/11/22 10:06:55;;;;;;;1.63;0.50;;;21.20;41.30;;;;;;4995843;28;20133;-62
2021/11/22 10:09:33;;;;;;;2.00;0.50;;;21.20;41.80;;;;;;4995504;28;20038;-61
2021/11/22 10:12:05;;;;;;;1.48;0.50;;;21.20;41.90;;;;;;4996818;28;20055;-61
2021/11/22 10:14:52;;;;;;;2.33;0.50;;;21.20;41.90;;;;;;4997441;28;20096;-61
2021/11/22 10:17:39;;;;;;;1.77;0.50;;;21.10;41.60;;;;;;4996042;28;20128;-60
2021/11/22 10:20:11;;;;;;;2.67;0.60;;;21.20;41.40;;;;;;4995130;28;20042;-62
2021/11/22 10:23:07;;;;;;;2.65;0.60;;;21.20;41.40;;;;;;4995843;28;20434;-61
2021/11/22 10:25:37;;;;;;;1.23;0.52;;;21.20;41.00;;;;;;4995756;28;20044;-60
2021/11/22 10:28:15;;;;;;;2.15;0.63;;;21.20;40.80;;;;;;4996853;28;20062;-61
2021/11/22 10:30:44;;;;;;;2.10;0.60;;;21.20;40.80;;;;;;4997737;28;20033;-61
2021/11/22 10:33:12;;;;;;;2.22;0.52;;;21.20;40.80;;;;;;4993457;28;20077;-60
2021/11/22 10:35:38;;;;;;;4.43;0.60;;;21.10;40.40;;;;;;4993908;28;20115;-61
2021/11/22 10:38:17;;;;;;;2.13;0.60;;;21.10;41.20;;;;;;4996124;28;20041;-62
2021/11/22 10:40:46;;;;;;;2.17;0.55;;;21.10;40.50;;;;;;4996204;28;20459;-61
2021/11/22 10:43:13;;;;;;;2.67;0.57;;;21.10;40.30;;;;;;4993530;28;20523;-62
2021/11/22 10:45:48;;;;;;;2.80;0.70;;;21.10;40.30;;;;;;4996560;28;20152;-61
2021/11/22 10:48:18;;;;;;;1.30;0.50;;;21.10;40.40;;;;;;4995280;28;20852;-61
2021/11/22 10:50:55;;;;;;;1.95;0.50;;;21.10;40.40;;;;;;4995523;28;20080;-62
2021/11/22 10:53:28;;;;;;;1.20;0.40;;;21.10;40.40;;;;;;4993760;28;20034;-60
2021/11/22 10:55:54;;;;;;;1.60;0.47;;;21.10;40.40;;;;;;4996743;28;20045;-61
2021/11/22 10:59:07;;;;;;;2.05;0.50;;;21.10;40.50;;;;;;4996271;28;20030;-61
2021/11/22 11:01:37;;;;;;;2.67;0.50;;;21.00;40.40;;;;;;4992280;28;20050;-61
2021/11/22 11:04:08;;;;;;;2.22;0.52;;;21.00;40.20;;;;;;4994209;28;20042;-62
2021/11/22 11:06:44;;;;;;;2.40;0.50;;;21.00;40.10;;;;;;4994532;28;20164;-62
2021/11/22 11:09:34;;;;;;;1.10;0.40;;;21.10;40.60;;;;;;4996553;28;20046;-61
2021/11/22 11:12:07;;;;;;;1.75;0.57;;;21.00;40.30;;;;;;4994716;28;20077;-61
2021/11/22 11:14:34;;;;;;;3.00;0.60;;;21.00;40.30;;;;;;4993839;28;20654;-61
2021/11/22 11:17:19;;;;;;;2.75;0.60;;;21.00;40.20;;;;;;4995384;28;20034;-62
2021/11/22 11:19:46;;;;;;;2.60;0.50;;;21.00;40.40;;;;;;4993713;28;20046;-62
2021/11/22 11:22:12;;;;;;;1.30;0.40;;;21.00;40.50;;;;;;4994352;28;20120;-61
2021/11/22 11:24:38;;;;;;;1.98;0.60;;;21.00;40.30;;;;;;4994849;28;20652;-62
2021/11/22 11:27:04;;;;;;;1.52;0.40;;;21.00;40.40;;;;;;4993136;28;20038;-61
2021/11/22 11:29:30;;;;;;;1.42;0.40;;;21.00;40.20;;;;;;4995393;28;20106;-62
2021/11/22 11:31:56;;;;;;;2.40;0.50;;;21.00;40.40;;;;;;4994903;28;20058;-61
2021/11/22 11:34:32;;;;;;;2.03;0.60;;;21.00;40.40;;;;;;4992431;28;20046;-61
2021/11/22 11:37:12;;;;;;;2.78;0.70;;;21.00;40.20;;;;;;4992592;28;20064;-62
2021/11/22 11:39:47;;;;;;;4.40;0.50;;;21.00;40.30;;;;;;4996061;28;20042;-62
2021/11/22 11:42:48;;;;;;;1.93;0.50;;;21.00;40.10;;;;;;4991221;28;20038;-61
2021/11/22 11:45:47;;;;;;;2.28;0.50;;;21.00;40.30;;;;;;4974358;28;20046;-61
2021/11/22 11:48:38;;;;;;;2.30;0.50;;;21.00;40.20;;;;;;4994600;28;20042;-61
2021/11/22 11:51:16;;;;;;;3.00;0.43;;;21.00;40.20;;;;;;4995344;28;20132;-61
2021/11/22 11:54:04;;;;;;;1.38;0.40;;;21.00;40.70;;;;;;4997049;28;20129;-61
2021/11/22 11:56:54;;;;;;;2.38;0.50;;;21.00;40.20;;;;;;4995726;28;20042;-62
2021/11/22 11:59:20;;;;;;;1.38;0.40;;;20.90;39.80;;;;;;4985810;28;20052;-61
2021/11/22 12:02:10;;;;;;;2.47;0.50;;;21.00;40.00;;;;;;4993654;28;20042;-60
2021/11/22 12:04:46;;;;;;;2.30;0.70;;;21.00;40.00;;;;;;4993258;28;20104;-62
2021/11/22 12:07:23;;;;;;;1.98;0.50;;;21.00;39.70;;;;;;4994422;28;20081;-61
2021/11/22 12:10:08;;;;;;;1.85;0.50;;;21.00;40.00;;;;;;4992524;28;20053;-61
2021/11/22 12:12:42;;;;;;;1.70;0.45;;;21.00;41.00;;;;;;4994543;28;20069;-62
2021/11/22 12:15:21;;;;;;;2.10;0.45;;;21.00;40.60;;;;;;4993617;28;20576;-62
2021/11/22 12:17:48;;;;;;;1.15;0.30;;;21.00;40.80;;;;;;4992867;28;20057;-61
2021/11/22 12:20:26;;;;;;;1.33;0.40;;;21.00;41.00;;;;;;5007381;28;20030;-61
2021/11/22 12:22:54;;;;;;;2.53;0.55;;;21.10;41.10;;;;;;4995252;28;20053;-62
2021/11/22 12:25:41;;;;;;;2.53;0.50;;;21.10;41.10;;;;;;4994549;28;20096;-60
2021/11/22 12:28:19;;;;;;;1.83;0.50;;;21.10;41.10;;;;;;4995287;28;20041;-62
2021/11/22 12:30:46;;;;;;;1.60;0.43;;;21.10;41.10;;;;;;4993106;28;20038;-62
2021/11/22 12:33:21;;;;;;;2.53;0.70;;;21.10;41.10;;;;;;4993388;28;20038;-60
2021/11/22 12:36:12;;;;;;;2.85;0.52;;;21.10;41.00;;;;;;4994101;28;20403;-62
2021/11/22 12:38:41;;;;;;;1.75;0.50;;;21.10;41.00;;;;;;4995992;28;20053;-61
2021/11/22 12:41:11;;;;;;;1.98;0.60;;;21.10;41.00;;;;;;4991664;28;20526;-62
2021/11/22 12:43:39;;;;;;;2.63;0.50;;;21.10;40.90;;;;;;4995906;28;20050;-60
2021/11/22 12:46:07;;;;;;;1.67;0.40;;;21.10;40.80;;;;;;4992708;28;20820;-61
2021/11/22 12:48:35;;;;;;;0.95;0.40;;;21.10;40.90;;;;;;4994625;28;20041;-62
2021/11/22 12:51:04;;;;;;;2.40;0.50;;;21.20;41.00;;;;;;4994447;28;20415;-62
2021/11/22 12:53:30;;;;;;;1.67;0.50;;;21.20;40.80;;;;;;4995383;28;20050;-61